sensor_id;sensor_type;location;lat;lon;timestamp;P1;durP1;ratioP1;P2;durP2;ratioP2
49340;SDS011;35209;51.050;13.678;2023-12-20T00:00:53;1.83;;;1.50;;
49340;SDS011;35209;51.050;13.678;2023-12-20T00:05:54;2.90;;;2.08;;
49340;SDS011;35209;51.050;13.678;2023-12-20T00:10:57;1.63;;;1.45;;
49340;SDS011;35209;51.050;13.678;2023-12-20T00:15:58;1.67;;;1.58;;
49340;SDS011;35209;51.050;13.678;2023-12-20T00:21:00;1.55;;;1.35;;
49340;SDS011;35209;51.050;13.678;2023-12-20T00:26:02;1.30;;;0.95;;
49340;SDS011;35209;51.050;13.678;2023-12-20T00:31:04;1.55;;;1.10;;
49340;SDS011;35209;51.050;13.678;2023-12-20T00:36:06;1.25;;;0.93;;
49340;SDS011;35209;51.050;13.678;2023-12-20T00:41:08;1.35;;;1.10;;
49340;SDS011;35209;51.050;13.678;2023-12-20T00:46:09;1.92;;;1.10;;
49340;SDS011;35209;51.050;13.678;2023-12-20T00:51:11;1.05;;;0.95;;
49340;SDS011;35209;51.050;13.678;2023-12-20T00:56:13;1.25;;;1.05;;
49340;SDS011;35209;51.050;13.678;2023-12-20T01:01:15;0.98;;;0.90;;
49340;SDS011;35209;51.050;13.678;2023-12-20T01:06:17;0.80;;;0.77;;
49340;SDS011;35209;51.050;13.678;2023-12-20T01:11:18;4.05;;;0.85;;
49340;SDS011;35209;51.050;13.678;2023-12-20T01:16:20;0.80;;;0.73;;
49340;SDS011;35209;51.050;13.678;2023-12-20T01:21:22;0.70;;;0.70;;
49340;SDS011;35209;51.050;13.678;2023-12-20T01:26:25;0.80;;;0.77;;
49340;SDS011;35209;51.050;13.678;2023-12-20T01:31:26;1.00;;;0.88;;
49340;SDS011;35209;51.050;13.678;2023-12-20T01:36:28;1.00;;;0.70;;
49340;SDS011;35209;51.050;13.678;2023-12-20T01:41:30;0.85;;;0.82;;
49340;SDS011;35209;51.050;13.678;2023-12-20T01:46:32;0.60;;;0.60;;
49340;SDS011;35209;51.050;13.678;2023-12-20T01:51:34;0.98;;;0.73;;
49340;SDS011;35209;51.050;13.678;2023-12-20T01:56:37;0.93;;;0.60;;
49340;SDS011;35209;51.050;13.678;2023-12-20T02:01:40;0.60;;;0.60;;
49340;SDS011;35209;51.050;13.678;2023-12-20T02:06:42;0.45;;;0.45;;
49340;SDS011;35209;51.050;13.678;2023-12-20T02:11:47;0.50;;;0.50;;
49340;SDS011;35209;51.050;13.678;2023-12-20T02:16:49;0.50;;;0.50;;
49340;SDS011;35209;51.050;13.678;2023-12-20T02:21:51;0.40;;;0.40;;
49340;SDS011;35209;51.050;13.678;2023-12-20T02:27:06;0.50;;;0.50;;
49340;SDS011;35209;51.050;13.678;2023-12-20T02:32:09;0.45;;;0.40;;
49340;SDS011;35209;51.050;13.678;2023-12-20T02:37:11;0.50;;;0.50;;
49340;SDS011;35209;51.050;13.678;2023-12-20T02:42:12;0.75;;;0.40;;
49340;SDS011;35209;51.050;13.678;2023-12-20T02:47:14;0.50;;;0.50;;
49340;SDS011;35209;51.050;13.678;2023-12-20T02:52:16;0.30;;;0.30;;
49340;SDS011;35209;51.050;13.678;2023-12-20T02:57:18;0.40;;;0.40;;
49340;SDS011;35209;51.050;13.678;2023-12-20T03:02:19;0.50;;;0.50;;
49340;SDS011;35209;51.050;13.678;2023-12-20T03:07:21;0.40;;;0.30;;
49340;SDS011;35209;51.050;13.678;2023-12-20T03:12:23;0.30;;;0.30;;
49340;SDS011;35209;51.050;13.678;2023-12-20T03:17:25;0.28;;;0.28;;
49340;SDS011;35209;51.050;13.678;2023-12-20T03:22:26;0.30;;;0.30;;
49340;SDS011;35209;51.050;13.678;2023-12-20T03:27:28;0.30;;;0.30;;
49340;SDS011;35209;51.050;13.678;2023-12-20T03:32:30;0.30;;;0.30;;
49340;SDS011;35209;51.050;13.678;2023-12-20T03:37:32;0.50;;;0.50;;
49340;SDS011;35209;51.050;13.678;2023-12-20T03:42:33;0.40;;;0.40;;
49340;SDS011;35209;51.050;13.678;2023-12-20T03:47:35;0.30;;;0.30;;
49340;SDS011;35209;51.050;13.678;2023-12-20T03:52:36;0.32;;;0.30;;
49340;SDS011;35209;51.050;13.678;2023-12-20T03:57:38;0.28;;;0.25;;
49340;SDS011;35209;51.050;13.678;2023-12-20T04:02:40;0.30;;;0.30;;
49340;SDS011;35209;51.050;13.678;2023-12-20T04:07:43;0.30;;;0.30;;
49340;SDS011;35209;51.050;13.678;2023-12-20T04:12:45;0.20;;;0.20;;
49340;SDS011;35209;51.050;13.678;2023-12-20T04:17:47;0.30;;;0.30;;
49340;SDS011;35209;51.050;13.678;2023-12-20T04:22:49;0.45;;;0.40;;
49340;SDS011;35209;51.050;13.678;2023-12-20T04:27:51;1.17;;;0.30;;
49340;SDS011;35209;51.050;13.678;2023-12-20T04:32:53;0.55;;;0.40;;
49340;SDS011;35209;51.050;13.678;2023-12-20T04:37:54;0.30;;;0.30;;
49340;SDS011;35209;51.050;13.678;2023-12-20T04:42:56;0.38;;;0.38;;
49340;SDS011;35209;51.050;13.678;2023-12-20T04:47:58;0.35;;;0.35;;
49340;SDS011;35209;51.050;13.678;2023-12-20T04:53:00;0.50;;;0.50;;
49340;SDS011;35209;51.050;13.678;2023-12-20T04:58:01;0.50;;;0.40;;
49340;SDS011;35209;51.050;13.678;2023-12-20T05:03:03;0.40;;;0.40;;
49340;SDS011;35209;51.050;13.678;2023-12-20T05:08:05;0.43;;;0.40;;
49340;SDS011;35209;51.050;13.678;2023-12-20T05:13:07;0.40;;;0.40;;
49340;SDS011;35209;51.050;13.678;2023-12-20T05:18:09;0.47;;;0.40;;
49340;SDS011;35209;51.050;13.678;2023-12-20T05:23:11;0.30;;;0.30;;
49340;SDS011;35209;51.050;13.678;2023-12-20T05:28:15;0.38;;;0.38;;
49340;SDS011;35209;51.050;13.678;2023-12-20T05:33:17;0.30;;;0.30;;
49340;SDS011;35209;51.050;13.678;2023-12-20T05:38:18;0.30;;;0.30;;
49340;SDS011;35209;51.050;13.678;2023-12-20T05:43:20;0.40;;;0.40;;
49340;SDS011;35209;51.050;13.678;2023-12-20T05:48:22;0.35;;;0.30;;
49340;SDS011;35209;51.050;13.678;2023-12-20T05:53:24;0.57;;;0.38;;
49340;SDS011;35209;51.050;13.678;2023-12-20T05:58:25;0.57;;;0.40;;
49340;SDS011;35209;51.050;13.678;2023-12-20T06:03:27;0.30;;;0.30;;
49340;SDS011;35209;51.050;13.678;2023-12-20T06:08:29;0.55;;;0.55;;
49340;SDS011;35209;51.050;13.678;2023-12-20T06:13:31;0.43;;;0.43;;
49340;SDS011;35209;51.050;13.678;2023-12-20T06:18:32;0.40;;;0.40;;
49340;SDS011;35209;51.050;13.678;2023-12-20T06:23:34;0.40;;;0.40;;
49340;SDS011;35209;51.050;13.678;2023-12-20T06:28:36;1.15;;;0.50;;
49340;SDS011;35209;51.050;13.678;2023-12-20T06:33:42;0.93;;;0.60;;
49340;SDS011;35209;51.050;13.678;2023-12-20T06:38:45;0.50;;;0.50;;
49340;SDS011;35209;51.050;13.678;2023-12-20T06:43:47;0.50;;;0.50;;
49340;SDS011;35209;51.050;13.678;2023-12-20T06:48:51;0.50;;;0.50;;
49340;SDS011;35209;51.050;13.678;2023-12-20T06:53:53;0.57;;;0.57;;
49340;SDS011;35209;51.050;13.678;2023-12-20T06:58:54;0.93;;;0.60;;
49340;SDS011;35209;51.050;13.678;2023-12-20T07:03:56;0.60;;;0.60;;
49340;SDS011;35209;51.050;13.678;2023-12-20T07:08:58;1.02;;;0.80;;
49340;SDS011;35209;51.050;13.678;2023-12-20T07:13:59;0.70;;;0.70;;
49340;SDS011;35209;51.050;13.678;2023-12-20T07:19:02;1.33;;;1.20;;
49340;SDS011;35209;51.050;13.678;2023-12-20T07:24:04;0.80;;;0.73;;
49340;SDS011;35209;51.050;13.678;2023-12-20T07:29:06;1.00;;;0.90;;
49340;SDS011;35209;51.050;13.678;2023-12-20T07:34:08;1.13;;;1.02;;
49340;SDS011;35209;51.050;13.678;2023-12-20T07:39:10;0.80;;;0.80;;
49340;SDS011;35209;51.050;13.678;2023-12-20T07:44:11;1.35;;;1.10;;
49340;SDS011;35209;51.050;13.678;2023-12-20T07:49:13;0.90;;;0.90;;
49340;SDS011;35209;51.050;13.678;2023-12-20T07:54:15;1.45;;;1.35;;
49340;SDS011;35209;51.050;13.678;2023-12-20T07:59:17;1.38;;;1.23;;
49340;SDS011;35209;51.050;13.678;2023-12-20T08:04:32;1.20;;;1.10;;
49340;SDS011;35209;51.050;13.678;2023-12-20T08:09:34;5.07;;;1.38;;
49340;SDS011;35209;51.050;13.678;2023-12-20T08:14:38;1.25;;;1.15;;
49340;SDS011;35209;51.050;13.678;2023-12-20T08:19:39;1.40;;;1.00;;
49340;SDS011;35209;51.050;13.678;2023-12-20T08:24:41;2.35;;;1.13;;
49340;SDS011;35209;51.050;13.678;2023-12-20T08:29:43;1.88;;;0.88;;
49340;SDS011;35209;51.050;13.678;2023-12-20T08:34:48;1.10;;;0.77;;
49340;SDS011;35209;51.050;13.678;2023-12-20T08:39:51;0.70;;;0.70;;
49340;SDS011;35209;51.050;13.678;2023-12-20T08:44:53;2.05;;;0.80;;
49340;SDS011;35209;51.050;13.678;2023-12-20T08:49:54;1.75;;;0.63;;
49340;SDS011;35209;51.050;13.678;2023-12-20T09:00:03;1.55;;;0.57;;
49340;SDS011;35209;51.050;13.678;2023-12-20T09:05:08;1.10;;;0.50;;
49340;SDS011;35209;51.050;13.678;2023-12-20T09:10:10;0.30;;;0.20;;
49340;SDS011;35209;51.050;13.678;2023-12-20T09:15:12;0.85;;;0.40;;
49340;SDS011;35209;51.050;13.678;2023-12-20T09:20:14;0.63;;;0.40;;
49340;SDS011;35209;51.050;13.678;2023-12-20T09:25:16;0.60;;;0.50;;
49340;SDS011;35209;51.050;13.678;2023-12-20T09:30:19;0.68;;;0.45;;
49340;SDS011;35209;51.050;13.678;2023-12-20T09:35:28;0.65;;;0.45;;
49340;SDS011;35209;51.050;13.678;2023-12-20T09:40:30;1.95;;;0.60;;
49340;SDS011;35209;51.050;13.678;2023-12-20T09:45:34;0.93;;;0.50;;
49340;SDS011;35209;51.050;13.678;2023-12-20T09:50:36;1.35;;;0.57;;
49340;SDS011;35209;51.050;13.678;2023-12-20T09:55:38;1.02;;;0.60;;
49340;SDS011;35209;51.050;13.678;2023-12-20T10:00:42;2.85;;;0.82;;
49340;SDS011;35209;51.050;13.678;2023-12-20T10:05:44;1.42;;;0.60;;
49340;SDS011;35209;51.050;13.678;2023-12-20T10:10:46;1.20;;;0.50;;
49340;SDS011;35209;51.050;13.678;2023-12-20T10:15:49;0.75;;;0.40;;
49340;SDS011;35209;51.050;13.678;2023-12-20T10:20:51;1.65;;;0.60;;
49340;SDS011;35209;51.050;13.678;2023-12-20T10:25:59;1.42;;;0.55;;
49340;SDS011;35209;51.050;13.678;2023-12-20T10:31:01;1.25;;;0.52;;
49340;SDS011;35209;51.050;13.678;2023-12-20T10:36:03;2.03;;;1.08;;
49340;SDS011;35209;51.050;13.678;2023-12-20T10:41:05;1.23;;;0.40;;
49340;SDS011;35209;51.050;13.678;2023-12-20T10:46:07;2.70;;;0.60;;
49340;SDS011;35209;51.050;13.678;2023-12-20T10:51:09;1.85;;;0.60;;
49340;SDS011;35209;51.050;13.678;2023-12-20T10:56:12;2.58;;;0.70;;
49340;SDS011;35209;51.050;13.678;2023-12-20T11:01:18;1.40;;;0.77;;
49340;SDS011;35209;51.050;13.678;2023-12-20T11:17:09;1.30;;;0.52;;
49340;SDS011;35209;51.050;13.678;2023-12-20T11:22:15;1.55;;;0.77;;
49340;SDS011;35209;51.050;13.678;2023-12-20T11:27:18;2.45;;;0.60;;
49340;SDS011;35209;51.050;13.678;2023-12-20T11:37:37;2.38;;;0.85;;
49340;SDS011;35209;51.050;13.678;2023-12-20T11:42:46;1.38;;;0.80;;
49340;SDS011;35209;51.050;13.678;2023-12-20T11:47:51;0.98;;;0.50;;
49340;SDS011;35209;51.050;13.678;2023-12-20T11:52:54;2.42;;;0.60;;
49340;SDS011;35209;51.050;13.678;2023-12-20T11:57:56;2.30;;;0.80;;
49340;SDS011;35209;51.050;13.678;2023-12-20T12:02:58;2.22;;;0.82;;
49340;SDS011;35209;51.050;13.678;2023-12-20T12:08:00;0.73;;;0.50;;
49340;SDS011;35209;51.050;13.678;2023-12-20T12:13:05;2.67;;;1.00;;
49340;SDS011;35209;51.050;13.678;2023-12-20T12:18:07;1.33;;;0.70;;
49340;SDS011;35209;51.050;13.678;2023-12-20T12:23:09;3.40;;;0.70;;
49340;SDS011;35209;51.050;13.678;2023-12-20T12:28:10;0.50;;;0.50;;
49340;SDS011;35209;51.050;13.678;2023-12-20T12:33:12;6.22;;;0.70;;
49340;SDS011;35209;51.050;13.678;2023-12-20T12:38:14;0.98;;;0.60;;
49340;SDS011;35209;51.050;13.678;2023-12-20T12:43:17;1.27;;;0.60;;
49340;SDS011;35209;51.050;13.678;2023-12-20T12:48:18;1.52;;;0.52;;
49340;SDS011;35209;51.050;13.678;2023-12-20T12:53:20;1.38;;;0.47;;
49340;SDS011;35209;51.050;13.678;2023-12-20T12:58:22;2.20;;;0.63;;
49340;SDS011;35209;51.050;13.678;2023-12-20T13:03:24;1.17;;;0.60;;
49340;SDS011;35209;51.050;13.678;2023-12-20T13:08:26;1.95;;;0.50;;
49340;SDS011;35209;51.050;13.678;2023-12-20T13:13:27;1.50;;;0.73;;
49340;SDS011;35209;51.050;13.678;2023-12-20T13:18:30;0.85;;;0.50;;
49340;SDS011;35209;51.050;13.678;2023-12-20T13:23:32;2.35;;;2.15;;
49340;SDS011;35209;51.050;13.678;2023-12-20T13:28:33;0.95;;;0.40;;
49340;SDS011;35209;51.050;13.678;2023-12-20T13:33:35;1.50;;;0.60;;
49340;SDS011;35209;51.050;13.678;2023-12-20T13:38:37;1.60;;;0.60;;
49340;SDS011;35209;51.050;13.678;2023-12-20T13:43:39;1.25;;;0.55;;
49340;SDS011;35209;51.050;13.678;2023-12-20T13:48:40;1.95;;;0.43;;
49340;SDS011;35209;51.050;13.678;2023-12-20T13:53:42;0.50;;;0.50;;
49340;SDS011;35209;51.050;13.678;2023-12-20T13:58:44;1.02;;;0.40;;
49340;SDS011;35209;51.050;13.678;2023-12-20T14:03:48;1.30;;;0.50;;
49340;SDS011;35209;51.050;13.678;2023-12-20T14:08:49;1.95;;;0.50;;
49340;SDS011;35209;51.050;13.678;2023-12-20T14:13:51;1.60;;;0.60;;
49340;SDS011;35209;51.050;13.678;2023-12-20T14:18:53;1.10;;;0.50;;
49340;SDS011;35209;51.050;13.678;2023-12-20T14:23:58;0.85;;;0.60;;
49340;SDS011;35209;51.050;13.678;2023-12-20T14:29:00;0.82;;;0.38;;
49340;SDS011;35209;51.050;13.678;2023-12-20T14:34:02;1.90;;;0.60;;
49340;SDS011;35209;51.050;13.678;2023-12-20T14:39:05;0.85;;;0.32;;
49340;SDS011;35209;51.050;13.678;2023-12-20T14:44:07;2.47;;;0.40;;
49340;SDS011;35209;51.050;13.678;2023-12-20T14:49:09;1.25;;;0.45;;
49340;SDS011;35209;51.050;13.678;2023-12-20T14:54:10;0.73;;;0.30;;
49340;SDS011;35209;51.050;13.678;2023-12-20T14:59:12;0.98;;;0.45;;
49340;SDS011;35209;51.050;13.678;2023-12-20T15:04:14;1.08;;;0.57;;
49340;SDS011;35209;51.050;13.678;2023-12-20T15:09:16;0.50;;;0.30;;
49340;SDS011;35209;51.050;13.678;2023-12-20T15:14:18;0.55;;;0.40;;
49340;SDS011;35209;51.050;13.678;2023-12-20T15:19:21;1.45;;;0.40;;
49340;SDS011;35209;51.050;13.678;2023-12-20T15:24:23;0.88;;;0.50;;
49340;SDS011;35209;51.050;13.678;2023-12-20T15:29:30;1.38;;;0.40;;
49340;SDS011;35209;51.050;13.678;2023-12-20T15:34:32;0.80;;;0.38;;
49340;SDS011;35209;51.050;13.678;2023-12-20T15:39:34;0.82;;;0.43;;
49340;SDS011;35209;51.050;13.678;2023-12-20T15:44:36;0.70;;;0.30;;
49340;SDS011;35209;51.050;13.678;2023-12-20T15:49:38;0.98;;;0.43;;
49340;SDS011;35209;51.050;13.678;2023-12-20T15:54:40;0.85;;;0.40;;
49340;SDS011;35209;51.050;13.678;2023-12-20T15:59:43;0.77;;;0.50;;
49340;SDS011;35209;51.050;13.678;2023-12-20T16:04:44;0.73;;;0.60;;
49340;SDS011;35209;51.050;13.678;2023-12-20T16:09:46;1.70;;;0.75;;
49340;SDS011;35209;51.050;13.678;2023-12-20T16:14:48;1.02;;;0.60;;
49340;SDS011;35209;51.050;13.678;2023-12-20T16:19:50;0.90;;;0.63;;
49340;SDS011;35209;51.050;13.678;2023-12-20T16:24:53;1.55;;;0.90;;
49340;SDS011;35209;51.050;13.678;2023-12-20T16:29:55;1.20;;;0.40;;
49340;SDS011;35209;51.050;13.678;2023-12-20T16:34:56;0.45;;;0.40;;
49340;SDS011;35209;51.050;13.678;2023-12-20T16:39:58;1.25;;;0.70;;
49340;SDS011;35209;51.050;13.678;2023-12-20T16:45:00;0.70;;;0.70;;
49340;SDS011;35209;51.050;13.678;2023-12-20T16:50:02;1.02;;;0.50;;
49340;SDS011;35209;51.050;13.678;2023-12-20T16:55:08;1.30;;;0.50;;
49340;SDS011;35209;51.050;13.678;2023-12-20T17:00:11;2.67;;;0.45;;
49340;SDS011;35209;51.050;13.678;2023-12-20T17:05:13;0.77;;;0.40;;
49340;SDS011;35209;51.050;13.678;2023-12-20T17:10:15;1.48;;;0.50;;
49340;SDS011;35209;51.050;13.678;2023-12-20T17:15:17;1.08;;;0.60;;
49340;SDS011;35209;51.050;13.678;2023-12-20T17:20:18;1.27;;;0.70;;
49340;SDS011;35209;51.050;13.678;2023-12-20T17:25:20;1.63;;;0.68;;
49340;SDS011;35209;51.050;13.678;2023-12-20T17:30:23;1.15;;;0.60;;
49340;SDS011;35209;51.050;13.678;2023-12-20T17:35:25;2.55;;;1.15;;
49340;SDS011;35209;51.050;13.678;2023-12-20T17:40:26;1.30;;;1.00;;
49340;SDS011;35209;51.050;13.678;2023-12-20T17:45:28;1.67;;;0.88;;
49340;SDS011;35209;51.050;13.678;2023-12-20T17:50:30;1.25;;;0.60;;
49340;SDS011;35209;51.050;13.678;2023-12-20T17:55:32;1.05;;;0.82;;
49340;SDS011;35209;51.050;13.678;2023-12-20T18:00:34;2.08;;;1.23;;
49340;SDS011;35209;51.050;13.678;2023-12-20T18:05:36;3.47;;;0.80;;
49340;SDS011;35209;51.050;13.678;2023-12-20T18:10:38;3.75;;;1.90;;
49340;SDS011;35209;51.050;13.678;2023-12-20T18:15:40;2.45;;;1.30;;
49340;SDS011;35209;51.050;13.678;2023-12-20T18:20:42;4.57;;;0.90;;
49340;SDS011;35209;51.050;13.678;2023-12-20T18:25:44;1.65;;;1.08;;
49340;SDS011;35209;51.050;13.678;2023-12-20T18:30:45;1.58;;;0.80;;
49340;SDS011;35209;51.050;13.678;2023-12-20T18:35:47;1.58;;;1.10;;
49340;SDS011;35209;51.050;13.678;2023-12-20T18:40:49;2.03;;;1.30;;
49340;SDS011;35209;51.050;13.678;2023-12-20T18:45:51;4.32;;;2.13;;
49340;SDS011;35209;51.050;13.678;2023-12-20T18:50:54;4.72;;;2.40;;
49340;SDS011;35209;51.050;13.678;2023-12-20T18:55:55;2.30;;;1.98;;
49340;SDS011;35209;51.050;13.678;2023-12-20T19:00:57;1.70;;;1.27;;
49340;SDS011;35209;51.050;13.678;2023-12-20T19:06:01;3.10;;;1.73;;
49340;SDS011;35209;51.050;13.678;2023-12-20T19:11:04;3.33;;;2.10;;
49340;SDS011;35209;51.050;13.678;2023-12-20T19:16:06;4.35;;;1.98;;
49340;SDS011;35209;51.050;13.678;2023-12-20T19:21:08;3.25;;;2.35;;
49340;SDS011;35209;51.050;13.678;2023-12-20T19:26:10;4.63;;;2.40;;
49340;SDS011;35209;51.050;13.678;2023-12-20T19:31:13;2.58;;;1.40;;
49340;SDS011;35209;51.050;13.678;2023-12-20T19:36:15;2.63;;;1.83;;
49340;SDS011;35209;51.050;13.678;2023-12-20T19:41:17;2.00;;;1.45;;
49340;SDS011;35209;51.050;13.678;2023-12-20T19:46:19;1.38;;;1.25;;
49340;SDS011;35209;51.050;13.678;2023-12-20T19:51:24;2.83;;;1.10;;
49340;SDS011;35209;51.050;13.678;2023-12-20T19:56:26;2.50;;;0.75;;
49340;SDS011;35209;51.050;13.678;2023-12-20T20:01:28;1.52;;;1.00;;
49340;SDS011;35209;51.050;13.678;2023-12-20T20:06:30;4.15;;;0.90;;
49340;SDS011;35209;51.050;13.678;2023-12-20T20:11:32;1.08;;;0.80;;
49340;SDS011;35209;51.050;13.678;2023-12-20T20:16:36;2.08;;;0.70;;
49340;SDS011;35209;51.050;13.678;2023-12-20T20:21:38;0.70;;;0.70;;
49340;SDS011;35209;51.050;13.678;2023-12-20T20:26:39;1.35;;;0.90;;
49340;SDS011;35209;51.050;13.678;2023-12-20T20:31:41;0.50;;;0.50;;
49340;SDS011;35209;51.050;13.678;2023-12-20T20:36:43;1.95;;;0.80;;
49340;SDS011;35209;51.050;13.678;2023-12-20T20:41:45;0.77;;;0.50;;
49340;SDS011;35209;51.050;13.678;2023-12-20T20:46:46;0.73;;;0.73;;
49340;SDS011;35209;51.050;13.678;2023-12-20T20:51:50;0.70;;;0.50;;
49340;SDS011;35209;51.050;13.678;2023-12-20T20:56:52;0.50;;;0.40;;
49340;SDS011;35209;51.050;13.678;2023-12-20T21:01:54;0.38;;;0.32;;
49340;SDS011;35209;51.050;13.678;2023-12-20T21:06:56;0.32;;;0.32;;
49340;SDS011;35209;51.050;13.678;2023-12-20T21:11:58;0.50;;;0.40;;
49340;SDS011;35209;51.050;13.678;2023-12-20T21:17:00;1.98;;;0.52;;
49340;SDS011;35209;51.050;13.678;2023-12-20T21:22:02;0.40;;;0.40;;
49340;SDS011;35209;51.050;13.678;2023-12-20T21:27:04;0.30;;;0.30;;
49340;SDS011;35209;51.050;13.678;2023-12-20T21:32:05;1.20;;;0.40;;
49340;SDS011;35209;51.050;13.678;2023-12-20T21:37:07;0.60;;;0.50;;
49340;SDS011;35209;51.050;13.678;2023-12-20T21:42:09;0.50;;;0.40;;
49340;SDS011;35209;51.050;13.678;2023-12-20T21:47:11;1.02;;;0.40;;
49340;SDS011;35209;51.050;13.678;2023-12-20T21:52:13;1.00;;;0.40;;
49340;SDS011;35209;51.050;13.678;2023-12-20T21:57:19;0.40;;;0.40;;
49340;SDS011;35209;51.050;13.678;2023-12-20T22:02:21;0.95;;;0.20;;
49340;SDS011;35209;51.050;13.678;2023-12-20T22:07:23;0.98;;;0.20;;
49340;SDS011;35209;51.050;13.678;2023-12-20T22:12:24;1.65;;;0.43;;
49340;SDS011;35209;51.050;13.678;2023-12-20T22:17:26;0.57;;;0.20;;
49340;SDS011;35209;51.050;13.678;2023-12-20T22:22:28;0.32;;;0.28;;
49340;SDS011;35209;51.050;13.678;2023-12-20T22:27:31;0.57;;;0.43;;
49340;SDS011;35209;51.050;13.678;2023-12-20T22:32:32;0.55;;;0.40;;
49340;SDS011;35209;51.050;13.678;2023-12-20T22:37:34;0.35;;;0.20;;
49340;SDS011;35209;51.050;13.678;2023-12-20T22:42:36;0.20;;;0.20;;
49340;SDS011;35209;51.050;13.678;2023-12-20T22:47:38;1.30;;;0.40;;
49340;SDS011;35209;51.050;13.678;2023-12-20T22:52:41;0.43;;;0.43;;
49340;SDS011;35209;51.050;13.678;2023-12-20T22:57:42;0.63;;;0.30;;
49340;SDS011;35209;51.050;13.678;2023-12-20T23:02:44;0.40;;;0.20;;
49340;SDS011;35209;51.050;13.678;2023-12-20T23:07:46;0.52;;;0.20;;
49340;SDS011;35209;51.050;13.678;2023-12-20T23:12:49;0.80;;;0.35;;
49340;SDS011;35209;51.050;13.678;2023-12-20T23:17:51;0.40;;;0.20;;
49340;SDS011;35209;51.050;13.678;2023-12-20T23:22:54;0.52;;;0.30;;
49340;SDS011;35209;51.050;13.678;2023-12-20T23:27:56;0.73;;;0.40;;
49340;SDS011;35209;51.050;13.678;2023-12-20T23:32:58;0.28;;;0.28;;
49340;SDS011;35209;51.050;13.678;2023-12-20T23:38:00;0.75;;;0.20;;
49340;SDS011;35209;51.050;13.678;2023-12-20T23:43:03;0.43;;;0.30;;
49340;SDS011;35209;51.050;13.678;2023-12-20T23:48:05;0.45;;;0.20;;
49340;SDS011;35209;51.050;13.678;2023-12-20T23:53:06;0.30;;;0.20;;
49340;SDS011;35209;51.050;13.678;2023-12-20T23:58:11;0.77;;;0.20;;
